Time;durP1;ratioP1;P1;durP2;ratioP2;P2;SDS_P1;SDS_P2;PMS_P1;PMS_P2;Temp;Humidity;BMP_temperature;BMP_pressure;BME280_temperature;BME280_humidity;BME280_pressure;Samples;Min_cycle;Max_cycle;Signal;HPM_P1;HPM_P2
2023/10/24 00:01:18;;;;;;;3.10;2.80;;;;;;;18.00;57.05;98020.77;103888;1281;61343;-41
2023/10/24 00:03:45;;;;;;;3.20;2.70;;;;;;;18.00;57.11;98015.89;103469;1282;74240;-41
2023/10/24 00:06:12;;;;;;;2.80;2.40;;;;;;;18.00;57.03;98014.34;103612;1282;65801;-41
2023/10/24 00:08:38;;;;;;;3.90;3.00;;;;;;;17.99;57.02;98013.55;103761;1280;72546;-41
2023/10/24 00:11:05;;;;;;;3.10;2.70;;;;;;;17.99;57.07;98012.48;103758;1283;61761;-42
2023/10/24 00:13:32;;;;;;;2.90;2.60;;;;;;;17.99;57.09;98007.51;103441;1280;61387;-41
2023/10/24 00:15:59;;;;;;;2.80;2.50;;;;;;;17.99;57.09;98011.37;103565;1282;74331;-41
2023/10/24 00:18:26;;;;;;;3.10;2.50;;;;;;;17.98;57.11;98011.05;103906;1282;65432;-41
2023/10/24 00:20:53;;;;;;;3.60;2.50;;;;;;;17.98;57.06;98005.79;103678;1282;71665;-41
2023/10/24 00:23:20;;;;;;;2.90;2.40;;;;;;;17.98;57.00;98004.45;103722;1282;61214;-43
2023/10/24 00:25:47;;;;;;;6.30;2.80;;;;;;;17.98;57.05;98004.14;103946;1280;61272;-42
2023/10/24 00:28:13;;;;;;;3.80;3.00;;;;;;;17.98;57.04;98005.22;103862;1292;73553;-42
2023/10/24 00:30:40;;;;;;;4.50;2.70;;;;;;;17.98;57.05;98002.28;103825;1280;66576;-42
2023/10/24 00:33:07;;;;;;;3.60;2.60;;;;;;;17.97;57.08;98003.03;103676;1282;72516;-40
2023/10/24 00:35:34;;;;;;;3.10;2.40;;;;;;;17.97;57.04;98001.95;104103;1282;61285;-41
2023/10/24 00:38:01;;;;;;;4.00;3.00;;;;;;;17.97;56.99;98002.25;103788;1283;61487;-41
2023/10/24 00:40:27;;;;;;;2.70;2.50;;;;;;;17.97;57.01;97996.90;103830;1280;74659;-41
2023/10/24 00:42:54;;;;;;;3.20;2.90;;;;;;;17.97;57.03;97994.90;103909;1283;65069;-41
2023/10/24 00:45:21;;;;;;;3.30;2.70;;;;;;;17.97;57.02;97994.89;103704;1283;72637;-43
2023/10/24 00:47:47;;;;;;;3.60;3.30;;;;;;;17.97;56.99;97991.55;103729;1283;61275;-43
2023/10/24 00:50:14;;;;;;;3.90;2.80;;;;;;;17.97;57.00;97991.23;103411;1283;61407;-43
2023/10/24 00:52:43;;;;;;;2.80;2.50;;;;;;;17.96;57.12;97989.43;103238;1287;74443;-40
2023/10/24 00:55:10;;;;;;;2.80;2.50;;;;;;;17.96;56.94;97992.33;103814;1282;64835;-43
2023/10/24 00:57:37;;;;;;;3.20;2.80;;;;;;;17.96;56.97;97993.64;103419;1285;72471;-41
2023/10/24 01:00:04;;;;;;;2.80;2.50;;;;;;;17.97;56.95;97995.20;103813;1282;61303;-43
2023/10/24 01:02:31;;;;;;;3.70;2.80;;;;;;;17.96;56.97;97995.23;103794;1282;61262;-43
2023/10/24 01:04:58;;;;;;;3.30;2.80;;;;;;;17.96;56.95;97999.19;103579;1285;74500;-43
2023/10/24 01:07:25;;;;;;;5.20;2.90;;;;;;;17.96;56.93;97991.59;103732;1282;65638;-41
2023/10/24 01:09:51;;;;;;;3.20;2.50;;;;;;;17.96;56.94;97992.23;103585;1283;72724;-41
2023/10/24 01:12:18;;;;;;;3.30;2.70;;;;;;;17.96;56.89;97989.65;103734;1283;61291;-41
2023/10/24 01:14:44;;;;;;;3.70;3.00;;;;;;;17.96;56.94;97989.81;103797;1280;61374;-42
2023/10/24 01:17:12;;;;;;;6.10;2.80;;;;;;;17.95;56.95;97990.26;103558;1282;74723;-41
2023/10/24 01:19:38;;;;;;;4.90;3.10;;;;;;;17.95;56.92;97990.17;103547;1283;65367;-41
2023/10/24 01:22:05;;;;;;;3.20;2.90;;;;;;;17.95;56.90;97991.88;103388;1283;72535;-42
2023/10/24 01:24:32;;;;;;;3.30;2.90;;;;;;;17.95;57.02;97988.70;103546;1283;61236;-42
2023/10/24 01:26:59;;;;;;;3.20;2.90;;;;;;;17.95;56.95;97991.19;103531;1282;61397;-42
2023/10/24 01:29:26;;;;;;;3.50;3.20;;;;;;;17.94;56.92;97990.31;103475;1282;74662;-42
2023/10/24 01:31:52;;;;;;;5.00;3.20;;;;;;;17.94;56.99;97987.44;103530;1283;65093;-42
2023/10/24 01:34:19;;;;;;;2.80;2.60;;;;;;;17.94;56.91;97986.73;103673;1282;72656;-42
2023/10/24 01:36:46;;;;;;;3.20;2.80;;;;;;;17.94;56.97;97987.98;103876;1282;61355;-42
2023/10/24 01:39:13;;;;;;;3.80;3.10;;;;;;;17.94;56.93;97985.66;103706;1283;61287;-42
2023/10/24 01:41:39;;;;;;;2.80;2.60;;;;;;;17.94;56.89;97987.04;103558;1284;74854;-41
2023/10/24 01:44:06;;;;;;;3.30;2.90;;;;;;;17.93;56.95;97981.45;103558;1293;66033;-41
2023/10/24 01:46:33;;;;;;;3.10;2.80;;;;;;;17.93;56.94;97983.14;103570;1293;72640;-42
2023/10/24 01:48:59;;;;;;;3.00;2.80;;;;;;;17.93;56.89;97980.13;103547;1293;61358;-42
2023/10/24 01:51:27;;;;;;;3.80;2.80;;;;;;;17.93;56.94;97984.23;103864;1283;61342;-42
2023/10/24 01:53:54;;;;;;;3.20;2.90;;;;;;;17.93;56.94;97985.39;103695;1285;74459;-43
2023/10/24 01:56:21;;;;;;;4.30;3.10;;;;;;;17.92;56.88;97985.85;103332;1293;66109;-43
2023/10/24 01:58:47;;;;;;;4.10;2.70;;;;;;;17.93;56.82;97982.36;103385;1283;72440;-41
2023/10/24 02:01:14;;;;;;;3.10;2.60;;;;;;;17.92;56.92;97981.34;103834;1283;61324;-42
2023/10/24 02:03:41;;;;;;;3.50;3.00;;;;;;;17.93;56.88;97980.73;103464;1285;61433;-41
2023/10/24 02:06:08;;;;;;;4.20;3.10;;;;;;;17.92;56.87;97983.66;103677;1281;75812;-42
2023/10/24 02:08:35;;;;;;;3.40;2.60;;;;;;;17.93;56.85;97982.52;103831;1293;66196;-42
2023/10/24 02:11:02;;;;;;;3.20;2.90;;;;;;;17.93;56.79;97980.73;103852;1283;72578;-42
2023/10/24 02:13:29;;;;;;;3.50;3.10;;;;;;;17.92;56.82;97973.67;103889;1283;61835;-41
2023/10/24 02:15:56;;;;;;;3.90;2.90;;;;;;;17.92;56.89;97976.00;103473;1283;61426;-41
2023/10/24 02:18:23;;;;;;;3.40;2.90;;;;;;;17.92;56.86;97975.67;103721;1286;74502;-41
2023/10/24 02:20:49;;;;;;;3.00;2.70;;;;;;;17.92;56.90;97982.02;104024;1282;66451;-43
2023/10/24 02:23:16;;;;;;;3.20;2.80;;;;;;;17.91;56.88;97983.71;104942;1282;70382;-43
2023/10/24 02:25:43;;;;;;;3.80;2.90;;;;;;;17.92;56.78;97984.13;103878;1283;61270;-41
2023/10/24 02:28:10;;;;;;;3.70;2.80;;;;;;;17.92;56.84;97983.35;103748;1284;61496;-42
2023/10/24 02:30:37;;;;;;;2.90;2.60;;;;;;;17.92;56.80;97983.42;103939;1282;74651;-43
2023/10/24 02:33:04;;;;;;;4.00;2.90;;;;;;;17.92;56.78;97977.92;103862;1283;65937;-41
2023/10/24 02:35:31;;;;;;;2.90;2.60;;;;;;;17.92;56.77;97977.61;104159;1282;72467;-41
2023/10/24 02:37:57;;;;;;;4.00;3.30;;;;;;;17.93;56.79;97979.48;103858;1292;61274;-41
2023/10/24 02:40:24;;;;;;;3.30;3.00;;;;;;;17.92;56.82;97979.54;104302;1282;61266;-41
2023/10/24 02:42:51;;;;;;;3.00;2.80;;;;;;;17.92;56.80;97975.36;103712;1286;74438;-41
2023/10/24 02:45:17;;;;;;;3.60;2.90;;;;;;;17.92;56.76;97974.05;103555;1283;65387;-41
2023/10/24 02:47:44;;;;;;;3.70;3.10;;;;;;;17.92;56.77;97976.83;103770;1283;72434;-41
2023/10/24 02:50:11;;;;;;;3.60;2.80;;;;;;;17.91;56.80;97975.75;103581;1290;61314;-42
2023/10/24 02:52:38;;;;;;;3.60;3.20;;;;;;;17.91;56.74;97980.36;103477;1283;61407;-42
2023/10/24 02:55:06;;;;;;;3.70;3.00;;;;;;;17.91;56.73;97982.92;103541;1286;74440;-42
2023/10/24 02:57:33;;;;;;;2.90;2.60;;;;;;;17.90;56.80;97983.21;103861;1284;65204;-41
2023/10/24 02:59:59;;;;;;;4.70;2.90;;;;;;;17.90;56.78;97982.52;103882;1283;72482;-41
2023/10/24 03:02:27;;;;;;;3.00;2.70;;;;;;;17.90;56.74;97979.65;103772;1283;61289;-41
2023/10/24 03:04:54;;;;;;;4.40;3.00;;;;;;;17.90;56.78;97981.89;103486;1282;61379;-42
2023/10/24 03:07:23;;;;;;;2.90;2.60;;;;;;;17.90;56.71;97981.04;103533;1286;74739;-42
2023/10/24 03:09:50;;;;;;;3.10;2.70;;;;;;;17.90;56.74;97984.45;103719;1282;66016;-41
2023/10/24 03:12:16;;;;;;;3.20;2.80;;;;;;;17.89;56.78;97981.10;103854;1283;72604;-41
2023/10/24 03:14:43;;;;;;;3.50;2.70;;;;;;;17.90;56.75;97979.79;103840;1283;61259;-41
2023/10/24 03:17:10;;;;;;;5.00;3.00;;;;;;;17.89;56.72;97977.52;103895;1280;61381;-41
2023/10/24 03:19:36;;;;;;;3.60;3.00;;;;;;;17.89;56.67;97975.36;103559;1281;74622;-41
2023/10/24 03:22:03;;;;;;;3.30;3.00;;;;;;;17.89;56.66;97973.86;103833;1293;66057;-40
2023/10/24 03:24:30;;;;;;;3.70;2.80;;;;;;;17.89;56.76;97970.55;103453;1280;72465;-41
2023/10/24 03:26:57;;;;;;;3.80;3.10;;;;;;;17.90;56.67;97966.09;103838;1293;61334;-41
2023/10/24 03:29:23;;;;;;;3.30;2.70;;;;;;;17.89;56.67;97966.20;103876;1282;61371;-41
2023/10/24 03:31:50;;;;;;;3.10;2.80;;;;;;;17.89;56.72;97964.65;103749;1283;74763;-40
2023/10/24 03:34:17;;;;;;;3.40;2.80;;;;;;;17.89;56.59;97960.27;103681;1282;65502;-41
2023/10/24 03:36:43;;;;;;;3.50;3.00;;;;;;;17.89;56.67;97961.62;103617;1280;72658;-41
2023/10/24 03:39:10;;;;;;;5.80;2.80;;;;;;;17.88;56.69;97960.83;103522;1290;61313;-41
2023/10/24 03:41:36;;;;;;;3.20;2.80;;;;;;;17.88;56.59;97958.19;103510;1280;61342;-41
2023/10/24 03:44:04;;;;;;;3.90;2.80;;;;;;;17.88;56.62;97954.40;103442;1283;74584;-40
2023/10/24 03:46:30;;;;;;;3.30;2.50;;;;;;;17.87;56.65;97949.98;103584;1282;66155;-43
2023/10/24 03:48:57;;;;;;;4.20;3.10;;;;;;;17.88;56.62;97953.70;103714;1281;72561;-42
2023/10/24 03:51:24;;;;;;;3.20;2.70;;;;;;;17.87;56.58;97955.78;103855;1282;61388;-41
2023/10/24 03:53:51;;;;;;;5.10;3.00;;;;;;;17.87;56.70;97955.84;103773;1283;61402;-41
2023/10/24 03:56:18;;;;;;;3.70;2.70;;;;;;;17.87;56.62;97957.41;103847;1283;75010;-41
2023/10/24 03:58:44;;;;;;;3.10;2.80;;;;;;;17.87;56.59;97955.30;103923;1282;66289;-41
2023/10/24 04:01:11;;;;;;;3.90;3.10;;;;;;;17.87;56.64;97954.61;103719;1282;72543;-41
2023/10/24 04:03:38;;;;;;;3.60;2.80;;;;;;;17.87;56.58;97958.87;103484;1283;61243;-41
2023/10/24 04:06:11;;;;;;;3.40;2.60;;;;;;;17.86;56.57;97957.61;103515;1280;61371;-41
2023/10/24 04:08:39;;;;;;;3.00;2.40;;;;;;;17.87;56.59;97957.15;103535;1282;74600;-40
2023/10/24 04:11:15;;;;;;;3.40;3.00;;;;;;;17.86;56.61;97955.05;103599;1282;64952;-39
2023/10/24 04:13:42;;;;;;;2.90;2.50;;;;;;;17.86;56.52;97953.81;103809;1285;71497;-41
2023/10/24 04:16:10;;;;;;;3.60;2.80;;;;;;;17.86;56.67;97957.14;103888;1283;62143;-42
2023/10/24 04:18:38;;;;;;;3.30;2.90;;;;;;;17.86;56.60;97951.55;103900;1283;61230;-42
2023/10/24 04:21:05;;;;;;;3.30;3.00;;;;;;;17.85;56.67;97951.63;103519;1282;74364;-40
2023/10/24 04:23:32;;;;;;;3.10;2.70;;;;;;;17.85;56.57;97952.23;103569;1282;66562;-43
2023/10/24 04:25:59;;;;;;;3.50;3.10;;;;;;;17.85;56.54;97954.56;103500;1280;72566;-42
2023/10/24 04:28:25;;;;;;;3.40;2.70;;;;;;;17.85;56.52;97951.07;103542;1284;61389;-42
2023/10/24 04:30:52;;;;;;;3.30;2.90;;;;;;;17.85;56.64;97955.57;103570;1280;61380;-42
2023/10/24 04:33:19;;;;;;;3.70;2.80;;;;;;;17.85;56.62;97958.11;103580;1282;74511;-42
2023/10/24 04:35:47;;;;;;;3.30;2.80;;;;;;;17.85;56.54;97955.33;103792;1283;65740;-42
2023/10/24 04:38:14;;;;;;;2.80;2.50;;;;;;;17.85;56.53;97958.11;103612;1280;72627;-42
2023/10/24 04:40:40;;;;;;;4.60;2.50;;;;;;;17.84;56.52;97962.89;103590;1283;61319;-43
2023/10/24 04:43:07;;;;;;;3.20;2.90;;;;;;;17.84;56.56;97964.36;103891;1282;61397;-42
2023/10/24 04:45:35;;;;;;;4.50;3.20;;;;;;;17.84;56.57;97966.38;103935;1279;73416;-42
2023/10/24 04:48:02;;;;;;;3.10;2.80;;;;;;;17.84;56.53;97968.21;103743;1282;66183;-42
2023/10/24 04:50:30;;;;;;;4.00;3.00;;;;;;;17.84;56.55;97969.37;104222;1279;72733;-42
2023/10/24 04:52:56;;;;;;;6.60;2.90;;;;;;;17.83;56.57;97971.52;103724;1278;61398;-42
2023/10/24 04:55:23;;;;;;;3.80;3.00;;;;;;;17.83;56.57;97968.98;104293;1279;61211;-43
2023/10/24 04:57:53;;;;;;;3.80;3.40;;;;;;;17.83;56.52;97967.81;103675;1283;74670;-40
2023/10/24 05:00:20;;;;;;;3.50;3.00;;;;;;;17.84;56.54;97969.20;104124;1279;66012;-41
2023/10/24 05:02:47;;;;;;;3.50;3.00;;;;;;;17.83;56.54;97963.33;103689;1280;72441;-41
2023/10/24 05:05:14;;;;;;;3.20;2.90;;;;;;;17.83;56.48;97962.23;103695;1282;61283;-42
2023/10/24 05:07:41;;;;;;;2.90;2.70;;;;;;;17.84;56.55;97958.53;104037;1278;61652;-43
2023/10/24 05:10:08;;;;;;;4.70;3.10;;;;;;;17.83;56.51;97954.80;104725;1278;74629;-43
2023/10/24 05:12:36;;;;;;;5.00;3.50;;;;;;;17.84;56.52;97959.69;103688;1282;66169;-41
2023/10/24 05:15:03;;;;;;;5.20;4.40;;;;;;;17.83;56.57;97956.80;103601;1280;72508;-43
2023/10/24 05:17:30;;;;;;;5.40;3.80;;;;;;;17.82;56.60;97954.38;103423;1285;61281;-41
2023/10/24 05:19:59;;;;;;;4.70;3.60;;;;;;;17.82;56.73;97959.70;103827;1282;61283;-41
2023/10/24 05:22:26;;;;;;;10.60;4.30;;;;;;;17.81;56.95;97962.64;103643;1287;74450;-40
2023/10/24 05:24:53;;;;;;;10.50;4.50;;;;;;;17.83;57.14;97963.68;103354;1283;66788;-40
2023/10/24 05:27:19;;;;;;;6.00;3.90;;;;;;;17.83;57.33;97965.32;103866;1280;72574;-41
2023/10/24 05:29:46;;;;;;;14.90;4.20;;;;;;;17.83;57.42;97966.95;103616;1280;61171;-41
2023/10/24 05:32:12;;;;;;;8.00;4.30;;;;;;;17.84;57.34;97967.74;103480;1280;61397;-39
2023/10/24 05:34:40;;;;;;;8.30;3.90;;;;;;;17.84;57.35;97970.48;103698;1282;75326;-40
2023/10/24 05:37:07;;;;;;;9.00;4.30;;;;;;;17.85;57.36;97969.33;103769;1282;66978;-41
2023/10/24 05:39:33;;;;;;;8.50;4.00;;;;;;;17.85;57.39;97965.16;103468;1279;72783;-41
2023/10/24 05:42:00;;;;;;;5.40;3.90;;;;;;;17.86;57.22;97968.58;103513;1282;61291;-41
2023/10/24 05:44:26;;;;;;;11.50;4.10;;;;;;;17.86;57.16;97967.96;103574;1280;61298;-41
2023/10/24 05:46:53;;;;;;;4.20;3.80;;;;;;;17.86;57.25;97969.21;103723;1282;74904;-41
2023/10/24 05:49:23;;;;;;;7.50;4.20;;;;;;;17.86;57.15;97972.94;103672;1282;65817;-40
2023/10/24 05:51:50;;;;;;;6.10;4.30;;;;;;;17.87;57.14;97972.64;103742;1280;72529;-41
2023/10/24 05:54:20;;;;;;;5.80;4.20;;;;;;;17.87;57.12;97974.18;103726;1283;61307;-41
2023/10/24 05:56:47;;;;;;;7.10;3.70;;;;;;;17.87;57.08;97979.69;103584;1280;61386;-41
2023/10/24 05:59:15;;;;;;;6.20;4.00;;;;;;;17.87;56.98;97977.21;103686;1283;74014;-42
2023/10/24 06:01:54;;;;;;;5.00;3.80;;;;;;;17.87;57.05;97976.60;103467;1283;65058;-41
2023/10/24 06:04:24;;;;;;;5.10;4.00;;;;;;;17.86;57.09;97973.64;103533;1285;72833;-43
2023/10/24 06:06:55;;;;;;;5.40;3.90;;;;;;;17.87;57.28;97971.64;103691;1283;61863;-43
2023/10/24 06:09:30;;;;;;;5.10;3.40;;;;;;;17.88;57.49;97971.45;103176;1286;61221;-42
2023/10/24 06:11:59;;;;;;;6.30;3.70;;;;;;;17.89;57.58;97973.70;103913;1282;74817;-42
2023/10/24 06:14:28;;;;;;;5.80;3.90;;;;;;;17.90;57.65;97978.39;103320;1282;67707;-42
2023/10/24 06:17:01;;;;;;;6.30;3.90;;;;;;;17.90;57.88;97978.41;103582;1283;72871;-41
2023/10/24 06:19:33;;;;;;;4.50;3.50;;;;;;;17.91;57.98;97978.05;103234;1280;61445;-42
2023/10/24 06:21:59;;;;;;;6.20;4.00;;;;;;;17.92;58.06;97981.10;103617;1280;61405;-42
2023/10/24 06:24:26;;;;;;;5.10;3.80;;;;;;;17.93;58.18;97982.29;103385;1280;73992;-41
2023/10/24 06:26:53;;;;;;;5.80;3.80;;;;;;;17.94;58.28;97984.80;103629;1282;66493;-40
2023/10/24 06:29:19;;;;;;;5.80;4.00;;;;;;;17.95;58.28;97982.42;103758;1280;72498;-43
2023/10/24 06:31:46;;;;;;;5.40;3.60;;;;;;;17.96;58.31;97984.80;103372;1283;61807;-41
2023/10/24 06:34:13;;;;;;;8.30;3.60;;;;;;;17.98;58.33;97991.67;103616;1279;61265;-41
2023/10/24 06:36:40;;;;;;;5.40;3.90;;;;;;;17.99;58.40;97993.80;103811;1280;74646;-43
2023/10/24 06:39:07;;;;;;;6.10;3.80;;;;;;;18.00;58.49;97992.91;103574;1282;66294;-41
2023/10/24 06:41:34;;;;;;;6.00;4.10;;;;;;;18.02;58.53;97990.27;103985;1279;73039;-42
2023/10/24 06:44:00;;;;;;;6.30;4.00;;;;;;;18.05;58.63;97986.80;103430;1285;61327;-41
2023/10/24 06:46:27;;;;;;;6.90;3.50;;;;;;;18.08;58.83;97981.48;104489;1279;61304;-39
2023/10/24 06:48:54;;;;;;;8.00;4.00;;;;;;;18.10;59.08;97983.64;103588;1286;75155;-40
2023/10/24 06:51:22;;;;;;;5.90;3.70;;;;;;;18.14;59.29;97987.55;107120;1279;66444;-38
2023/10/24 06:53:48;;;;;;;9.40;3.50;;;;;;;18.17;59.15;97989.66;107278;1279;71454;-39
2023/10/24 06:56:15;;;;;;;9.10;3.80;;;;;;;18.21;59.18;97989.23;106284;1279;61343;-37
2023/10/24 06:58:41;;;;;;;8.20;4.10;;;;;;;18.24;59.41;97986.64;103442;1280;61357;-39
2023/10/24 07:01:08;;;;;;;5.50;4.00;;;;;;;18.28;59.51;97988.39;103561;1279;74728;-40
2023/10/24 07:03:36;;;;;;;7.30;3.50;;;;;;;18.32;59.52;97996.64;103408;1280;66184;-38
2023/10/24 07:06:04;;;;;;;5.60;3.80;;;;;;;18.35;59.55;97990.38;103316;1280;72525;-39
2023/10/24 07:08:31;;;;;;;6.60;3.60;;;;;;;18.38;59.65;97992.18;107246;1280;59748;-39
2023/10/24 07:10:58;;;;;;;5.50;3.50;;;;;;;18.41;59.74;97989.95;104672;1279;61290;-38
2023/10/24 07:13:25;;;;;;;7.50;4.10;;;;;;;18.45;59.71;97979.62;103499;1286;74529;-38
2023/10/24 07:15:51;;;;;;;10.00;3.70;;;;;;;18.48;59.90;97971.36;103399;1282;66105;-42
2023/10/24 07:18:18;;;;;;;5.30;3.40;;;;;;;18.51;59.88;97967.35;103464;1281;71244;-38
2023/10/24 07:20:45;;;;;;;7.80;3.80;;;;;;;18.55;59.98;97969.55;103617;1282;61208;-38
2023/10/24 07:23:11;;;;;;;5.10;3.40;;;;;;;18.57;60.04;97964.98;103456;1280;61740;-42
2023/10/24 07:25:38;;;;;;;4.20;3.10;;;;;;;18.60;59.99;97966.38;103401;1282;73661;-40
2023/10/24 07:28:05;;;;;;;5.80;3.50;;;;;;;18.63;60.06;97964.12;103317;1279;66448;-39
2023/10/24 07:30:32;;;;;;;5.40;3.30;;;;;;;18.65;60.18;97965.15;103906;1279;72482;-43
2023/10/24 07:32:58;;;;;;;9.50;3.40;;;;;;;18.67;60.09;97957.19;103491;1283;61233;-38
2023/10/24 07:35:27;;;;;;;5.70;3.30;;;;;;;18.70;60.15;97961.32;105090;1279;61195;-39
2023/10/24 07:37:53;;;;;;;6.60;3.30;;;;;;;18.72;60.17;97957.90;103369;1284;75547;-39
2023/10/24 07:40:20;;;;;;;6.90;3.40;;;;;;;18.74;60.10;97957.42;103381;1280;66279;-39
2023/10/24 07:42:52;;;;;;;7.20;3.10;;;;;;;18.77;60.30;97960.44;103676;1279;71057;-37
2023/10/24 07:45:24;;;;;;;8.10;3.20;;;;;;;18.80;60.34;97957.27;103936;1282;61317;-40
2023/10/24 07:47:52;;;;;;;6.70;3.60;;;;;;;18.82;60.28;97957.81;103523;1280;61329;-38
2023/10/24 07:50:28;;;;;;;5.30;3.60;;;;;;;18.86;60.58;97956.38;103993;1279;73332;-39
2023/10/24 07:52:58;;;;;;;7.80;3.60;;;;;;;18.90;60.73;97958.27;103624;1279;65223;-43
2023/10/24 08:06:04;;;;;;;8.50;3.30;;;;;;;19.19;61.17;97955.20;103505;1282;61371;-41
2023/10/24 08:08:31;;;;;;;5.80;3.30;;;;;;;19.25;61.13;97945.89;103660;1280;74578;-40
2023/10/24 08:10:58;;;;;;;6.60;3.50;;;;;;;19.30;61.03;97931.73;103313;1285;66231;-41
2023/10/24 08:13:25;;;;;;;7.60;3.60;;;;;;;19.34;60.96;97922.30;103528;1280;72769;-42
2023/10/24 08:15:52;;;;;;;7.40;3.30;;;;;;;19.37;60.82;97919.30;103485;1282;61279;-44
2023/10/24 08:18:19;;;;;;;9.60;3.60;;;;;;;19.40;60.81;97916.98;103586;1280;61499;-48
2023/10/24 08:20:46;;;;;;;7.60;3.10;;;;;;;19.42;60.82;97918.36;103574;1280;75621;-41
2023/10/24 08:23:13;;;;;;;7.40;3.20;;;;;;;19.45;60.63;97922.38;103614;1282;66161;-44
2023/10/24 08:25:39;;;;;;;9.90;3.70;;;;;;;19.47;60.61;97925.01;103745;1283;72774;-43
2023/10/24 08:28:06;;;;;;;6.40;3.60;;;;;;;19.48;60.64;97930.88;103535;1279;61742;-44
2023/10/24 08:30:34;;;;;;;9.00;3.10;;;;;;;19.52;60.64;97945.24;103788;1280;61329;-45
2023/10/24 08:33:01;;;;;;;6.10;3.60;;;;;;;19.54;60.67;97955.37;103764;1282;74473;-42
2023/10/24 08:35:29;;;;;;;5.70;3.50;;;;;;;19.55;60.52;97956.88;103510;1283;67153;-41
2023/10/24 08:38:03;;;;;;;6.90;3.20;;;;;;;19.56;60.34;97968.71;103613;1284;72507;-42
2023/10/24 08:40:36;;;;;;;5.80;3.30;;;;;;;19.59;60.53;97973.96;103710;1280;61496;-41
2023/10/24 08:43:08;;;;;;;9.00;3.30;;;;;;;19.61;60.50;97962.77;104030;1280;61314;-39
2023/10/24 08:45:40;;;;;;;3.70;2.70;;;;;;;19.63;60.42;97946.75;105383;1280;74610;-39
2023/10/24 08:49:18;;;;;;;6.40;2.90;;;;;;;19.65;60.35;97926.16;103707;1283;67756;-43
2023/10/24 08:51:54;;;;;;;6.40;3.20;;;;;;;19.66;60.45;97914.01;104518;1279;236589;-41
2023/10/24 08:54:28;;;;;;;8.50;3.00;;;;;;;19.69;60.40;97908.41;103527;1282;61378;-40
2023/10/24 08:57:05;;;;;;;5.00;3.30;;;;;;;19.71;60.32;97904.73;103503;1279;61310;-40
2023/10/24 08:59:35;;;;;;;7.20;3.30;;;;;;;19.72;60.26;97903.73;103359;1280;74500;-40
2023/10/24 09:02:02;;;;;;;6.80;3.20;;;;;;;19.73;60.23;97904.77;103569;1279;66026;-39
2023/10/24 09:04:31;;;;;;;4.30;2.80;;;;;;;19.73;60.25;97901.92;103452;1285;72564;-41
2023/10/24 09:06:58;;;;;;;4.20;2.80;;;;;;;19.74;60.15;97907.59;103367;1285;61426;-41
2023/10/24 09:09:25;;;;;;;4.80;3.10;;;;;;;19.74;60.18;97907.45;103517;1280;61310;-40
2023/10/24 09:11:53;;;;;;;3.90;2.90;;;;;;;19.75;60.09;97901.33;103464;1282;75523;-41
2023/10/24 09:14:20;;;;;;;6.60;3.30;;;;;;;19.76;60.18;97895.21;103773;1282;66410;-40
2023/10/24 09:17:01;;;;;;;5.30;3.10;;;;;;;19.76;60.13;97882.27;103343;1280;72410;-43
2023/10/24 09:19:28;;;;;;;4.90;3.00;;;;;;;19.77;60.20;97882.44;105936;1279;61257;-44
2023/10/24 09:21:56;;;;;;;4.10;2.70;;;;;;;19.78;60.16;97884.09;107173;1279;58926;-44
2023/10/24 09:24:35;;;;;;;7.50;3.00;;;;;;;19.78;60.13;97884.48;107303;1279;73184;-44
2023/10/24 09:27:01;;;;;;;5.00;2.80;;;;;;;19.79;60.07;97884.73;103549;1282;67095;-44
2023/10/24 09:29:29;;;;;;;4.80;2.70;;;;;;;19.80;60.03;97877.08;103643;1280;72573;-43
2023/10/24 09:31:59;;;;;;;5.10;2.90;;;;;;;19.82;60.03;97869.36;103817;1282;61305;-40
2023/10/24 09:34:27;;;;;;;5.20;2.80;;;;;;;19.84;59.92;97858.07;103473;1282;61351;-44
2023/10/24 09:36:53;;;;;;;5.30;2.90;;;;;;;19.84;59.94;97851.46;103648;1280;75188;-41
2023/10/24 09:39:20;;;;;;;6.30;2.90;;;;;;;19.85;60.04;97841.79;104892;1278;66187;-39
2023/10/24 09:41:50;;;;;;;7.20;3.10;;;;;;;19.83;59.82;97831.13;103412;1280;72679;-36
2023/10/24 09:44:17;;;;;;;5.70;3.00;;;;;;;19.84;60.02;97835.39;103540;1282;61292;-37
2023/10/24 09:46:43;;;;;;;9.30;3.30;;;;;;;19.87;60.22;97832.12;103580;1280;61693;-38
2023/10/24 09:49:11;;;;;;;7.80;3.00;;;;;;;19.92;60.52;97833.32;103257;1280;74675;-41
2023/10/24 09:51:38;;;;;;;4.10;3.00;;;;;;;19.96;60.65;97833.88;103517;1280;66159;-40
2023/10/24 09:54:05;;;;;;;7.40;3.50;;;;;;;19.99;60.72;97832.02;103548;1282;72630;-37
2023/10/24 09:56:32;;;;;;;9.50;3.10;;;;;;;20.03;60.33;97840.88;103437;1282;61313;-36
2023/10/24 09:58:59;;;;;;;7.10;3.10;;;;;;;20.06;60.29;97842.17;103724;1280;61388;-38
2023/10/24 10:01:30;;;;;;;5.80;3.10;;;;;;;20.07;60.17;97829.61;103544;1278;74811;-39
2023/10/24 10:04:06;;;;;;;6.60;3.10;;;;;;;20.08;60.02;97822.10;103472;1284;68178;-37
2023/10/24 10:06:35;;;;;;;6.10;2.90;;;;;;;20.08;59.76;97817.75;103262;1280;72757;-37
2023/10/24 10:09:26;;;;;;;6.10;3.20;;;;;;;20.08;59.75;97810.06;103523;1280;61668;-37
2023/10/24 10:13:21;;;;;;;6.40;2.80;;;;;;;20.06;59.41;97813.15;103446;1282;61324;-36
2023/10/24 10:16:14;;;;;;;7.10;3.30;;;;;;;20.06;59.40;97810.64;103665;1282;74413;-37
2023/10/24 10:19:02;;;;;;;6.40;3.20;;;;;;;20.04;59.04;97811.84;103609;1280;66367;-36
2023/10/24 10:22:08;;;;;;;7.80;3.70;;;;;;;20.02;58.73;97804.20;103904;1279;72496;-38
2023/10/24 10:24:54;;;;;;;6.50;3.40;;;;;;;19.99;58.48;97804.66;103609;1280;61285;-38
2023/10/24 10:27:50;;;;;;;6.40;3.40;;;;;;;19.97;58.39;97799.98;103826;1280;61301;-36
2023/10/24 10:30:47;;;;;;;5.90;3.20;;;;;;;19.96;58.16;97791.07;103999;1282;75037;-38
2023/10/24 10:33:24;;;;;;;4.80;3.00;;;;;;;19.94;58.18;97791.57;105435;1279;65019;-37
2023/10/24 10:36:04;;;;;;;4.50;3.10;;;;;;;19.91;58.31;97787.87;104261;1282;73478;-37
2023/10/24 10:43:09;;;;;;;8.80;3.10;;;;;;;19.82;58.05;97770.29;103355;1280;61330;-38
2023/10/24 10:45:37;;;;;;;4.70;3.40;;;;;;;19.78;58.24;97766.87;103517;1280;75018;-38
2023/10/24 10:52:46;;;;;;;5.10;2.90;;;;;;;19.73;58.27;97762.08;104581;1282;70304;-39
2023/10/24 10:55:47;;;;;;;6.40;3.00;;;;;;;19.71;58.31;97760.48;103648;1280;61221;-36
2023/10/24 10:59:22;;;;;;;5.50;3.10;;;;;;;19.70;58.35;97754.65;103717;1280;61723;-36
2023/10/24 11:02:16;;;;;;;4.40;3.00;;;;;;;19.70;58.51;97744.10;103758;1282;74898;-39
2023/10/24 11:04:50;;;;;;;4.70;2.90;;;;;;;19.71;58.49;97747.76;103774;1280;66558;-39
2023/10/24 11:07:57;;;;;;;5.80;3.10;;;;;;;19.71;58.54;97748.15;103755;1283;72312;-39
2023/10/24 11:10:51;;;;;;;11.40;3.20;;;;;;;19.71;58.49;97744.27;103871;1282;61372;-38
2023/10/24 11:13:33;;;;;;;6.90;3.00;;;;;;;19.71;58.57;97744.73;103566;1280;61285;-37
2023/10/24 11:16:04;;;;;;;8.40;3.30;;;;;;;19.70;58.59;97741.84;103469;1280;74666;-36
2023/10/24 11:19:03;;;;;;;6.90;2.90;;;;;;;19.71;58.76;97745.67;103525;1282;65898;-38
2023/10/24 11:26:27;;;;;;;4.40;2.60;;;;;;;19.71;58.81;97746.29;103162;1282;61384;-37
2023/10/24 11:28:54;;;;;;;9.90;3.00;;;;;;;19.71;58.79;97742.66;105175;1285;61151;-38
2023/10/24 11:31:24;;;;;;;7.40;2.90;;;;;;;19.72;58.90;97736.30;105131;1282;75488;-38
2023/10/24 11:33:52;;;;;;;8.30;2.80;;;;;;;19.73;58.88;97726.52;104066;1282;66437;-37
2023/10/24 11:36:27;;;;;;;10.00;2.90;;;;;;;19.74;58.69;97722.12;106712;1282;73477;-38
2023/10/24 11:38:58;;;;;;;12.10;3.30;;;;;;;19.76;58.69;97723.64;105839;1285;61387;-37
2023/10/24 11:41:50;;;;;;;5.20;2.80;;;;;;;19.77;59.10;97724.54;106335;1282;61998;-38
2023/10/24 11:44:28;;;;;;;5.50;2.60;;;;;;;19.79;59.43;97722.86;102979;1289;75973;-37
2023/10/24 11:46:57;;;;;;;11.40;3.10;;;;;;;19.80;59.31;97720.40;106796;1282;65189;-39
2023/10/24 11:49:32;;;;;;;7.70;3.30;;;;;;;19.82;59.53;97715.63;105770;1283;72453;-37
2023/10/24 11:52:00;;;;;;;6.30;2.80;;;;;;;19.83;59.80;97712.78;103247;1287;61439;-37
2023/10/24 11:54:27;;;;;;;5.10;2.70;;;;;;;19.86;59.96;97714.61;103219;1282;61588;-38
2023/10/24 11:56:54;;;;;;;7.50;2.60;;;;;;;19.87;59.95;97712.38;103275;1282;74650;-37
2023/10/24 11:59:21;;;;;;;5.20;2.40;;;;;;;19.89;60.00;97705.06;103544;1282;65407;-40
2023/10/24 12:01:48;;;;;;;7.30;3.00;;;;;;;19.91;59.92;97701.45;103685;1280;73532;-38